createdAt,value
2022-09-07T00:01:40.118Z,6.07
2022-09-07T00:04:42.038Z,6.07
2022-09-07T00:07:44.073Z,8.38
2022-09-07T00:11:05.515Z,5.50
2022-09-07T00:14:08.096Z,6.55
2022-09-07T00:17:10.058Z,5.93
2022-09-07T00:20:12.801Z,6.18
2022-09-07T00:23:14.905Z,5.45
2022-09-07T00:26:20.671Z,6.17
2022-09-07T00:29:22.677Z,9.38
2022-09-07T00:32:24.766Z,5.60
2022-09-07T00:35:27.900Z,4.93
2022-09-07T00:38:30.027Z,4.45
2022-09-07T00:41:32.138Z,5.25
2022-09-07T00:44:42.954Z,4.53
2022-09-07T00:48:08.501Z,4.90
2022-09-07T00:51:18.584Z,5.47
2022-09-07T00:54:44.059Z,4.80
2022-09-07T00:57:50.679Z,3.90
2022-09-07T01:00:52.639Z,4.28
2022-09-07T01:03:57.540Z,6.03
2022-09-07T01:06:59.782Z,4.53
2022-09-07T01:10:02.334Z,5.28
2022-09-07T01:13:05.148Z,4.80
2022-09-07T01:16:22.811Z,4.82
2022-09-07T01:19:34.835Z,6.05
2022-09-07T01:22:45.961Z,4.82
2022-09-07T01:26:31.110Z,4.28
2022-09-07T01:29:44.607Z,5.32
2022-09-07T01:33:08.503Z,4.65
2022-09-07T01:36:36.458Z,6.07
2022-09-07T01:39:54.653Z,4.40
2022-09-07T01:43:04.255Z,4.53
2022-09-07T01:46:15.805Z,4.00
2022-09-07T01:49:23.025Z,4.43
2022-09-07T01:52:33.896Z,4.65
2022-09-07T01:55:41.442Z,4.97
2022-09-07T01:58:53.756Z,4.47
2022-09-07T02:02:08.262Z,6.23
2022-09-07T02:05:19.868Z,3.90
2022-09-07T02:08:32.328Z,5.22
2022-09-07T02:11:38.514Z,4.43
2022-09-07T02:14:51.887Z,4.82
2022-09-07T02:18:02.073Z,4.40
2022-09-07T02:21:07.503Z,4.50
2022-09-07T02:24:18.248Z,5.53
2022-09-07T02:27:34.383Z,4.05
2022-09-07T02:30:37.235Z,4.70
2022-09-07T02:33:39.425Z,4.90
2022-09-07T02:36:45.979Z,5.27
2022-09-07T02:39:49.508Z,5.20
2022-09-07T02:42:51.928Z,4.15
2022-09-07T02:46:27.222Z,4.30
2022-09-07T02:49:47.506Z,4.55
2022-09-07T02:53:04.506Z,4.57
2022-09-07T02:56:19.976Z,4.00
2022-09-07T02:59:43.514Z,4.07
2022-09-07T03:02:57.033Z,4.72
2022-09-07T03:06:03.612Z,4.35
2022-09-07T03:09:10.240Z,4.35
2022-09-07T03:12:12.920Z,4.82
2022-09-07T03:15:17.855Z,6.82
2022-09-07T03:18:19.964Z,4.82
2022-09-07T03:21:21.969Z,4.67
2022-09-07T03:24:23.895Z,4.93
2022-09-07T03:27:25.827Z,6.75
2022-09-07T03:30:27.741Z,4.60
2022-09-07T03:33:29.735Z,4.63
2022-09-07T03:36:33.005Z,4.30
2022-09-07T03:39:36.510Z,4.55
2022-09-07T03:42:39.271Z,4.75
2022-09-07T03:45:41.242Z,5.38
2022-09-07T03:48:43.185Z,4.43
2022-09-07T03:51:45.215Z,5.15
2022-09-07T03:54:47.354Z,5.63
2022-09-07T03:57:49.189Z,6.20
2022-09-07T04:00:51.254Z,6.90
2022-09-07T04:03:53.774Z,6.90
2022-09-07T04:06:55.818Z,7.13
2022-09-07T04:09:57.791Z,4.60
2022-09-07T04:12:59.734Z,5.40
2022-09-07T04:16:19.503Z,5.45
2022-09-07T04:19:21.845Z,5.60
2022-09-07T04:22:23.831Z,5.97
2022-09-07T04:25:25.798Z,5.13
2022-09-07T04:28:27.742Z,7.60
2022-09-07T04:31:30.311Z,6.13
2022-09-07T04:34:32.230Z,5.45
2022-09-07T04:37:34.131Z,5.38
2022-09-07T04:40:36.290Z,5.30
2022-09-07T04:43:39.839Z,4.70
2022-09-07T04:46:41.877Z,5.15
2022-09-07T04:49:43.934Z,4.47
2022-09-07T04:52:46.586Z,4.57
2022-09-07T04:55:48.569Z,6.00
2022-09-07T04:58:51.025Z,3.35
2022-09-07T05:01:53.054Z,5.32
2022-09-07T05:04:57.377Z,5.07
2022-09-07T05:08:02.758Z,4.50
2022-09-07T05:11:04.805Z,6.07
2022-09-07T05:14:07.194Z,3.47
2022-09-07T05:17:09.358Z,4.10
2022-09-07T05:20:11.326Z,3.88
2022-09-07T05:23:13.263Z,3.00
2022-09-07T05:26:15.113Z,3.63
2022-09-07T05:32:38.922Z,4.38
2022-09-07T05:35:40.923Z,3.27
2022-09-07T05:38:43.377Z,2.50
2022-09-07T05:41:45.270Z,3.28
2022-09-07T05:44:47.254Z,4.80
2022-09-07T05:47:50.904Z,3.37
2022-09-07T05:50:53.485Z,3.38
2022-09-07T05:53:56.397Z,4.25
2022-09-07T06:00:00.123Z,3.65
2022-09-07T06:03:02.181Z,3.67
2022-09-07T06:06:07.165Z,3.10
2022-09-07T06:09:12.677Z,4.13
2022-09-07T06:12:14.611Z,3.55
2022-09-07T06:15:17.174Z,3.67
2022-09-07T06:18:19.107Z,2.88
2022-09-07T06:21:23.383Z,2.90
2022-09-07T06:24:25.268Z,2.78
2022-09-07T06:27:27.639Z,3.53
2022-09-07T06:30:29.730Z,2.88
2022-09-07T06:33:32.284Z,2.63
2022-09-07T06:39:37.401Z,4.18
2022-09-07T06:42:39.541Z,2.78
2022-09-07T06:45:43.927Z,2.00
2022-09-07T06:48:46.283Z,1.75
2022-09-07T06:51:48.337Z,2.33
2022-09-07T06:57:59.448Z,3.85
2022-09-07T07:01:12.309Z,3.20
2022-09-07T07:04:14.468Z,7.07
2022-09-07T07:07:16.553Z,2.00
2022-09-07T07:10:23.596Z,2.22
2022-09-07T07:13:26.354Z,2.28
2022-09-07T07:16:28.310Z,1.80
2022-09-07T07:19:30.514Z,1.85
2022-09-07T07:22:47.655Z,2.97
2022-09-07T07:25:49.641Z,3.03
2022-09-07T07:31:59.484Z,3.90
2022-09-07T07:35:01.759Z,3.90
2022-09-07T07:48:15.175Z,2.55
2022-09-07T07:51:17.113Z,14.50
2022-09-07T07:54:21.482Z,4.28
2022-09-07T07:57:23.880Z,2.70
2022-09-07T08:00:37.736Z,2.83
2022-09-07T08:03:48.679Z,3.00
2022-09-07T08:09:53.084Z,2.13
2022-09-07T08:12:54.973Z,2.50
2022-09-07T08:16:00.797Z,2.13
2022-09-07T08:19:02.692Z,3.08
2022-09-07T08:22:04.622Z,2.22
2022-09-07T08:25:07.583Z,2.47
2022-09-07T08:28:09.491Z,2.75
2022-09-07T08:31:14.155Z,2.95
2022-09-07T08:34:16.929Z,3.30
2022-09-07T08:40:20.775Z,8.77
2022-09-07T08:43:37.633Z,2.80
2022-09-07T08:46:59.485Z,2.78
2022-09-07T08:50:11.465Z,3.33
2022-09-07T08:53:16.829Z,29.47
2022-09-07T08:56:18.767Z,8.35
2022-09-07T08:59:43.486Z,3.50
2022-09-07T09:02:45.992Z,2.78
2022-09-07T09:06:00.670Z,3.25
2022-09-07T09:09:17.812Z,2.55
2022-09-07T09:12:40.533Z,2.47
2022-09-07T09:15:53.129Z,3.72
2022-09-07T09:19:40.027Z,3.60
2022-09-07T09:22:43.102Z,10.18
2022-09-07T09:25:52.616Z,3.33
2022-09-07T09:28:55.241Z,2.50
2022-09-07T09:35:12.173Z,2.88
2022-09-07T09:38:29.399Z,2.60
2022-09-07T09:41:38.601Z,2.58
2022-09-07T09:44:42.260Z,1.98
2022-09-07T09:47:50.227Z,2.75
2022-09-07T09:54:24.684Z,11.45
2022-09-07T10:01:27.293Z,2.40
2022-09-07T10:04:34.990Z,2.15
2022-09-07T10:07:36.944Z,1.90
2022-09-07T10:10:49.709Z,6.32
2022-09-07T10:17:10.665Z,2.20
2022-09-07T10:20:18.943Z,2.03
2022-09-07T10:23:23.440Z,3.47
2022-09-07T10:26:34.960Z,1.98
2022-09-07T10:29:37.340Z,1.65
2022-09-07T10:32:46.756Z,1.42
2022-09-07T10:36:14.912Z,2.47
2022-09-07T10:39:45.091Z,2.25
2022-09-07T10:43:26.307Z,3.20
2022-09-07T10:50:33.650Z,2.27
2022-09-07T10:57:39.156Z,2.60
2022-09-07T11:01:06.855Z,3.47
2022-09-07T11:04:33.623Z,2.80
2022-09-07T11:07:44.635Z,2.85
2022-09-07T11:11:09.007Z,2.25
2022-09-07T11:14:19.462Z,3.03
2022-09-07T11:17:25.215Z,2.45
2022-09-07T11:20:30.280Z,1.55
2022-09-07T11:23:47.317Z,2.40
2022-09-07T11:26:56.750Z,2.75
2022-09-07T11:30:20.084Z,2.38
2022-09-07T11:33:27.065Z,1.88
2022-09-07T11:36:37.628Z,1.83
2022-09-07T11:39:45.047Z,2.53
2022-09-07T11:42:55.951Z,5.68
2022-09-07T11:46:01.188Z,4.15
2022-09-07T11:49:06.837Z,5.75
2022-09-07T11:52:23.171Z,2.10
2022-09-07T11:55:29.510Z,6.82
2022-09-07T11:58:43.628Z,8.40
2022-09-07T12:02:15.903Z,3.60
2022-09-07T12:05:25.241Z,6.57
2022-09-07T12:08:51.636Z,3.75
2022-09-07T12:12:08.331Z,4.35
2022-09-07T12:15:12.924Z,2.65
2022-09-07T12:18:41.882Z,4.22
2022-09-07T12:21:55.855Z,3.88
2022-09-07T12:25:08.604Z,5.07
2022-09-07T12:32:52.325Z,3.17
2022-09-07T12:35:26.488Z,2.67
2022-09-07T12:38:31.248Z,2.38
2022-09-07T12:45:34.011Z,2.25
2022-09-07T12:48:46.832Z,2.40
2022-09-07T12:51:59.738Z,2.28
2022-09-07T12:55:29.269Z,1.83
2022-09-07T12:58:43.172Z,2.50
2022-09-07T13:01:45.105Z,2.05
2022-09-07T13:05:08.691Z,2.42
2022-09-07T13:08:41.605Z,2.22
2022-09-07T13:11:43.695Z,2.10
2022-09-07T13:14:52.129Z,2.38
2022-09-07T13:17:57.415Z,2.13
2022-09-07T13:21:30.638Z,3.45
2022-09-07T13:27:58.600Z,5.95
2022-09-07T13:31:25.108Z,4.65
2022-09-07T13:34:53.340Z,4.38
2022-09-07T13:37:59.195Z,3.55
2022-09-07T13:41:07.413Z,3.33
2022-09-07T13:44:25.010Z,3.53
2022-09-07T13:47:33.869Z,3.58
2022-09-07T13:51:00.241Z,2.55
2022-09-07T13:54:20.151Z,2.53
2022-09-07T13:57:30.947Z,2.67
2022-09-07T14:00:34.178Z,3.13
2022-09-07T14:04:07.601Z,10.27
2022-09-07T14:07:20.851Z,6.20
2022-09-07T14:10:25.640Z,2.90
2022-09-07T14:13:27.701Z,5.45
2022-09-07T14:16:30.775Z,15.07
2022-09-07T14:19:39.745Z,6.70
2022-09-07T14:22:42.911Z,6.38
2022-09-07T14:29:22.371Z,13.10
2022-09-07T14:32:25.375Z,10.02
2022-09-07T14:35:32.585Z,8.82
2022-09-07T14:42:03.859Z,4.63
2022-09-07T14:45:22.044Z,4.18
2022-09-07T14:48:31.487Z,3.60
2022-09-07T14:51:36.732Z,7.97
2022-09-07T14:54:39.905Z,4.57
2022-09-07T14:57:41.718Z,9.52
2022-09-07T15:04:19.529Z,4.25
2022-09-07T15:07:40.981Z,4.88
2022-09-07T15:11:32.901Z,3.90
2022-09-07T15:14:19.895Z,4.38
2022-09-07T15:20:46.318Z,3.85
2022-09-07T15:23:57.082Z,3.10
2022-09-07T15:27:02.563Z,2.15
2022-09-07T15:30:05.244Z,3.22
2022-09-07T15:33:07.033Z,3.92
2022-09-07T15:36:14.741Z,2.83
2022-09-07T15:39:19.619Z,3.88
2022-09-07T15:45:43.539Z,3.40
2022-09-07T15:48:51.344Z,3.88
2022-09-07T15:52:08.419Z,3.63
2022-09-07T15:55:11.398Z,3.90
2022-09-07T15:58:13.219Z,4.45
2022-09-07T16:04:38.792Z,4.88
2022-09-07T16:11:18.532Z,6.85
2022-09-07T16:14:20.771Z,5.32
2022-09-07T16:17:26.897Z,4.67
2022-09-07T16:20:32.033Z,9.85
2022-09-07T16:23:34.272Z,4.45
2022-09-07T16:26:36.797Z,4.55
2022-09-07T16:29:38.903Z,5.03
2022-09-07T16:32:45.416Z,4.07
2022-09-07T16:36:01.618Z,4.20
2022-09-07T16:39:03.911Z,12.07
2022-09-07T16:42:06.454Z,16.20
2022-09-07T16:48:33.249Z,14.32
2022-09-07T16:51:35.828Z,12.15
2022-09-07T16:54:37.726Z,12.70
2022-09-07T17:01:02.696Z,10.75
2022-09-07T17:04:09.898Z,11.50
2022-09-07T17:07:14.997Z,10.75
2022-09-07T17:10:17.275Z,11.05
2022-09-07T17:13:20.214Z,11.20
2022-09-07T17:16:42.194Z,15.00
2022-09-07T17:19:44.452Z,23.23
2022-09-07T17:22:47.598Z,28.05
2022-09-07T17:25:49.886Z,32.00
2022-09-07T17:28:53.183Z,134.63
2022-09-07T17:35:26.741Z,149.52
2022-09-07T17:42:01.116Z,100.13
2022-09-07T17:45:04.354Z,81.63
2022-09-07T17:48:06.366Z,47.13
2022-09-07T17:51:11.986Z,30.60
2022-09-07T17:54:21.392Z,29.48
2022-09-07T17:57:23.286Z,26.67
2022-09-07T18:00:33.446Z,22.67
2022-09-07T18:03:37.973Z,21.25
2022-09-07T18:06:43.852Z,21.70
2022-09-07T18:09:47.112Z,23.75
2022-09-07T18:12:49.461Z,18.65
2022-09-07T18:15:55.778Z,16.20
2022-09-07T18:19:00.884Z,17.55
2022-09-07T18:22:03.984Z,16.52
2022-09-07T18:25:10.139Z,15.25
2022-09-07T18:31:35.314Z,16.38
2022-09-07T18:34:40.568Z,14.25
2022-09-07T18:37:42.985Z,16.23
2022-09-07T18:40:45.392Z,15.10
2022-09-07T18:46:50.103Z,15.40
2022-09-07T18:49:52.125Z,15.05
2022-09-07T18:53:04.190Z,14.93
2022-09-07T18:56:21.234Z,13.48
2022-09-07T18:59:23.303Z,12.38
2022-09-07T19:02:26.928Z,14.52
2022-09-07T19:05:52.806Z,11.50
2022-09-07T19:08:55.966Z,12.13
2022-09-07T19:15:00.781Z,13.18
2022-09-07T19:18:04.941Z,12.13
2022-09-07T19:21:12.333Z,13.35
2022-09-07T19:24:19.228Z,12.55
2022-09-07T19:27:21.188Z,11.63
2022-09-07T19:30:23.906Z,12.13
2022-09-07T19:33:26.454Z,11.57
2022-09-07T19:36:31.171Z,13.07
2022-09-07T19:39:33.292Z,10.90
2022-09-07T19:42:42.605Z,9.88
2022-09-07T19:45:45.000Z,10.45
2022-09-07T19:48:47.112Z,11.10
2022-09-07T19:51:52.034Z,10.63
2022-09-07T19:54:54.359Z,12.02
2022-09-07T19:57:56.225Z,12.23
2022-09-07T20:00:58.169Z,11.80
2022-09-07T20:04:03.420Z,10.23
2022-09-07T20:07:06.739Z,11.57
2022-09-07T20:10:09.005Z,12.10
2022-09-07T20:13:10.860Z,13.50
2022-09-07T20:16:16.453Z,9.90
2022-09-07T20:19:18.479Z,10.63
2022-09-07T20:22:20.405Z,10.73
2022-09-07T20:25:22.330Z,9.10
2022-09-07T20:28:24.483Z,9.63
2022-09-07T20:31:26.447Z,8.00
2022-09-07T20:34:28.857Z,9.25
2022-09-07T20:37:31.124Z,9.93
2022-09-07T20:40:33.607Z,8.75
2022-09-07T20:43:35.480Z,9.48
2022-09-07T20:46:37.372Z,8.95
2022-09-07T20:49:39.748Z,9.30
2022-09-07T20:52:41.728Z,8.32
2022-09-07T20:55:43.599Z,8.65
2022-09-07T20:58:46.839Z,8.32
2022-09-07T21:01:49.537Z,8.05
2022-09-07T21:04:51.479Z,8.30
2022-09-07T21:07:53.399Z,7.28
2022-09-07T21:10:55.280Z,9.27
2022-09-07T21:14:00.128Z,9.30
2022-09-07T21:17:01.995Z,8.00
2022-09-07T21:20:04.290Z,8.30
2022-09-07T21:23:06.196Z,8.63
2022-09-07T21:26:08.238Z,7.75
2022-09-07T21:29:15.206Z,9.23
2022-09-07T21:32:17.509Z,7.30
2022-09-07T21:35:19.805Z,6.03
2022-09-07T21:38:22.679Z,6.00
2022-09-07T21:41:25.496Z,6.05
2022-09-07T21:44:27.478Z,6.82
2022-09-07T21:47:29.356Z,6.13
2022-09-07T21:50:31.246Z,6.65
2022-09-07T21:53:33.637Z,8.32
2022-09-07T21:56:35.800Z,8.13
2022-09-07T21:59:37.653Z,5.30
2022-09-07T22:02:39.548Z,6.47
2022-09-07T22:05:41.421Z,5.22
2022-09-07T22:08:43.274Z,6.00
2022-09-07T22:11:46.166Z,5.05
2022-09-07T22:17:53.517Z,5.65
2022-09-07T22:21:07.438Z,5.18
2022-09-07T22:24:11.791Z,5.60
2022-09-07T22:27:13.760Z,6.03
2022-09-07T22:30:15.856Z,5.70
2022-09-07T22:33:17.737Z,5.47
2022-09-07T22:36:26.192Z,5.70
2022-09-07T22:39:28.112Z,6.68
2022-09-07T22:42:29.970Z,6.03
2022-09-07T22:45:31.808Z,5.25
2022-09-07T22:48:33.868Z,6.45
2022-09-07T22:51:36.057Z,5.30
2022-09-07T22:54:38.166Z,5.75
2022-09-07T22:57:40.049Z,5.20
2022-09-07T23:00:43.047Z,5.00
2022-09-07T23:06:46.845Z,4.65
2022-09-07T23:09:48.737Z,4.65
2022-09-07T23:12:52.977Z,6.75
2022-09-07T23:15:54.936Z,5.85
2022-09-07T23:19:00.442Z,5.60
2022-09-07T23:22:02.318Z,5.30
2022-09-07T23:25:04.668Z,5.97
2022-09-07T23:28:10.080Z,6.60
2022-09-07T23:31:12.012Z,7.07
2022-09-07T23:34:14.221Z,6.03
2022-09-07T23:37:16.027Z,6.67
2022-09-07T23:40:18.088Z,5.68
2022-09-07T23:43:20.025Z,5.57
2022-09-07T23:46:22.095Z,5.95
2022-09-07T23:49:24.152Z,5.53
2022-09-07T23:52:26.174Z,6.53
2022-09-07T23:55:32.438Z,5.70
2022-09-07T23:58:34.622Z,5.07
